Time;durP1;ratioP1;P1;durP2;ratioP2;P2;SDS_P1;SDS_P2;PMS_P1;PMS_P2;Temp;Humidity;BMP_temperature;BMP_pressure;BME280_temperature;BME280_humidity;BME280_pressure;Samples;Min_cycle;Max_cycle;Signal;HPM_P1;HPM_P2
2022/07/02 00:01:50;;;;;;;8.93;3.50;;;;;;;26.43;59.08;98961.38;6044187;23;20161;-91
2022/07/02 00:04:19;;;;;;;9.03;3.60;;;;;;;26.37;59.18;98970.16;6069188;23;20224;-91
2022/07/02 00:06:46;;;;;;;6.97;3.13;;;;;;;26.33;59.58;98969.72;6069428;23;20160;-92
2022/07/02 00:09:13;;;;;;;13.20;3.20;;;;;;;26.29;59.96;98972.94;6068933;23;20232;-91
2022/07/02 00:11:41;;;;;;;5.97;3.27;;;;;;;26.27;60.16;98966.94;6069021;23;20255;-92
2022/07/02 00:14:08;;;;;;;5.85;3.28;;;;;;;26.29;59.85;98970.25;6069083;23;20153;-92
2022/07/02 00:16:34;;;;;;;7.53;3.15;;;;;;;26.24;60.50;98970.81;6068288;23;20153;-91
2022/07/02 00:19:00;;;;;;;5.00;3.17;;;;;;;26.19;61.12;98962.47;6069058;23;20149;-92
2022/07/02 00:21:26;;;;;;;5.18;3.63;;;;;;;26.26;60.64;98962.59;6044531;23;20164;-91
2022/07/02 00:23:51;;;;;;;7.75;3.60;;;;;;;26.31;60.35;98962.88;6069374;23;20185;-91
2022/07/02 00:26:38;;;;;;;9.43;3.85;;;;;;;26.30;60.45;98966.56;6043898;23;20169;-92
2022/07/02 00:29:19;;;;;;;4.55;2.92;;;;;;;26.28;59.69;98966.75;6067884;23;20224;-92
2022/07/02 00:31:47;;;;;;;9.77;3.90;;;;;;;26.24;60.04;98968.13;6069522;23;20172;-92
2022/07/02 00:34:13;;;;;;;5.05;3.35;;;;;;;26.30;59.18;98969.25;6069015;23;20157;-92
2022/07/02 00:36:39;;;;;;;9.03;3.13;;;;;;;26.30;59.76;98961.19;6067883;23;20499;-92
2022/07/02 00:39:05;;;;;;;5.57;3.43;;;;;;;26.26;59.73;98963.41;6069249;23;20176;-92
2022/07/02 00:41:32;;;;;;;7.33;3.90;;;;;;;26.19;60.23;98957.94;6068709;23;20149;-91
2022/07/02 00:43:58;;;;;;;5.47;2.97;;;;;;;26.13;61.03;98961.34;6069427;23;20161;-92
2022/07/02 00:46:25;;;;;;;6.23;3.87;;;;;;;26.08;61.20;98954.81;6069144;23;20224;-92
2022/07/02 00:48:52;;;;;;;4.87;3.17;;;;;;;26.09;61.22;98967.25;6043784;23;20224;-91
2022/07/02 00:51:18;;;;;;;6.18;3.30;;;;;;;26.12;59.96;98964.19;6043762;23;20192;-92
2022/07/02 00:53:43;;;;;;;6.43;3.43;;;;;;;26.07;61.00;98964.72;6068981;23;20153;-92
2022/07/02 00:56:09;;;;;;;8.77;3.43;;;;;;;26.02;61.63;98969.81;6068833;23;20154;-92
2022/07/02 00:58:34;;;;;;;5.28;3.00;;;;;;;26.06;60.92;98978.34;6068695;23;20160;-92
2022/07/02 01:01:00;;;;;;;7.33;3.90;;;;;;;26.04;60.39;98970.50;6068677;23;20145;-91
2022/07/02 01:03:26;;;;;;;7.07;3.63;;;;;;;26.04;60.47;98975.88;6069088;23;20235;-93
2022/07/02 01:05:52;;;;;;;8.47;3.17;;;;;;;26.10;59.70;98975.13;6043911;23;20161;-92
2022/07/02 01:11:07;;;;;;;9.00;3.10;;;;;;;26.03;60.07;98973.34;6069054;23;20183;-92
2022/07/02 01:13:32;;;;;;;4.93;3.10;;;;;;;26.00;60.56;98979.91;6068870;23;20154;-91
2022/07/02 01:15:58;;;;;;;5.80;3.30;;;;;;;25.97;60.42;98982.16;6043576;23;20171;-92
2022/07/02 01:18:24;;;;;;;8.47;3.10;;;;;;;25.90;60.78;98976.66;6068597;23;20149;-92
2022/07/02 01:20:49;;;;;;;7.57;3.00;;;;;;;25.92;60.47;98981.84;6068540;23;20284;-93
2022/07/02 01:23:15;;;;;;;5.03;3.17;;;;;;;25.94;61.20;98988.69;6068519;23;20161;-92
2022/07/02 01:25:48;;;;;;;6.77;3.47;;;;;;;25.91;61.28;98985.56;6068619;23;20149;-91
2022/07/02 01:28:14;;;;;;;4.80;2.83;;;;;;;25.82;61.73;98989.31;6069238;23;20141;-91
2022/07/02 01:30:39;;;;;;;6.13;3.50;;;;;;;25.86;61.33;98990.63;6043393;23;20220;-91
2022/07/02 01:33:05;;;;;;;5.60;3.37;;;;;;;25.83;61.07;98989.16;6068753;23;20149;-91
2022/07/02 01:35:30;;;;;;;6.40;3.37;;;;;;;25.82;61.09;98994.69;6069354;23;20216;-92
2022/07/02 01:37:57;;;;;;;10.53;4.37;;;;;;;25.78;61.35;98991.53;6068375;23;20160;-91
2022/07/02 01:40:23;;;;;;;7.93;3.23;;;;;;;25.68;62.04;98996.34;6069055;23;20164;-91
2022/07/02 01:42:48;;;;;;;6.00;3.13;;;;;;;25.62;62.18;98997.03;6068699;23;20474;-92
2022/07/02 01:45:14;;;;;;;11.33;3.73;;;;;;;25.58;62.50;98995.72;6067387;23;20157;-92
2022/07/02 01:47:39;;;;;;;6.63;3.43;;;;;;;25.53;62.08;98990.03;6067425;23;20157;-91
2022/07/02 01:50:06;;;;;;;6.77;3.27;;;;;;;25.58;62.04;98988.50;6043658;23;20160;-91
2022/07/02 01:52:31;;;;;;;7.07;2.90;;;;;;;25.68;61.56;98992.81;6068542;23;20256;-92
2022/07/02 01:54:56;;;;;;;5.13;2.60;;;;;;;25.74;61.46;98992.91;6067281;23;20243;-91
2022/07/02 01:57:22;;;;;;;6.67;3.27;;;;;;;25.67;61.29;98993.81;6068383;23;20197;-91
2022/07/02 01:59:48;;;;;;;5.23;3.40;;;;;;;25.64;61.60;98982.41;6043260;23;20171;-91
2022/07/02 02:02:13;;;;;;;7.23;3.90;;;;;;;25.56;61.88;98989.69;6068322;23;20453;-91
2022/07/02 02:04:39;;;;;;;6.30;4.00;;;;;;;25.55;61.99;98991.53;6068275;23;20149;-91
2022/07/02 02:07:05;;;;;;;9.30;4.20;;;;;;;25.52;62.13;98999.13;6068098;23;20485;-92
2022/07/02 02:09:31;;;;;;;6.67;3.57;;;;;;;25.40;62.62;99001.34;6067223;23;20149;-91
2022/07/02 02:11:58;;;;;;;6.87;4.03;;;;;;;25.34;63.07;98994.00;6068941;23;20188;-92
2022/07/02 02:14:23;;;;;;;8.40;3.80;;;;;;;25.32;62.85;98997.88;6044984;23;20157;-91
2022/07/02 02:16:49;;;;;;;8.13;3.30;;;;;;;25.32;62.54;98995.19;6070120;23;20475;-92
2022/07/02 02:19:15;;;;;;;6.57;3.23;;;;;;;25.30;62.45;98992.69;6069007;23;20152;-91
2022/07/02 02:21:41;;;;;;;5.67;3.03;;;;;;;25.22;62.92;98999.94;6070022;23;20145;-90
2022/07/02 02:24:06;;;;;;;6.03;3.20;;;;;;;25.20;62.71;99001.97;6070827;23;20153;-91
2022/07/02 02:26:32;;;;;;;5.33;2.50;;;;;;;25.19;62.91;99000.28;6070109;23;20153;-91
2022/07/02 02:28:57;;;;;;;4.47;2.67;;;;;;;25.20;62.67;99001.97;6070726;23;20160;-91
2022/07/02 02:31:23;;;;;;;4.83;2.33;;;;;;;25.08;62.41;98998.84;6069966;23;20511;-91
2022/07/02 02:33:49;;;;;;;4.77;2.20;;;;;;;25.12;62.38;99002.03;6044963;23;20167;-91
2022/07/02 02:36:15;;;;;;;4.23;2.43;;;;;;;25.16;62.54;99000.69;6069908;23;20180;-91
2022/07/02 02:38:40;;;;;;;5.33;2.70;;;;;;;25.16;62.46;98996.13;6070277;23;20292;-91
2022/07/02 02:41:07;;;;;;;4.30;2.53;;;;;;;25.12;62.63;99004.69;6070210;23;20205;-91
2022/07/02 02:43:34;;;;;;;3.87;2.10;;;;;;;25.16;62.05;99000.69;6069921;23;20220;-90
2022/07/02 02:46:00;;;;;;;4.83;2.77;;;;;;;25.10;62.25;99007.56;6068713;23;20187;-91
2022/07/02 02:48:26;;;;;;;7.30;2.80;;;;;;;25.12;61.93;99010.91;6068738;23;20625;-91
2022/07/02 02:50:51;;;;;;;3.67;2.13;;;;;;;25.13;61.92;99003.72;6069704;23;20268;-91
2022/07/02 02:53:17;;;;;;;5.13;2.60;;;;;;;25.15;61.84;99007.88;6069834;23;20164;-91
2022/07/02 02:55:42;;;;;;;4.67;2.27;;;;;;;25.15;61.91;99009.72;6069770;23;20169;-91
2022/07/02 02:58:08;;;;;;;5.20;2.40;;;;;;;25.13;61.79;99003.72;6068638;23;20180;-92
2022/07/02 03:00:33;;;;;;;5.57;3.07;;;;;;;24.97;62.49;99008.13;6069682;23;20642;-92
2022/07/02 03:02:59;;;;;;;7.20;2.83;;;;;;;24.89;62.26;99005.50;6070052;23;20149;-91
2022/07/02 03:05:24;;;;;;;6.40;2.37;;;;;;;24.88;62.23;99003.81;6070272;23;20234;-90
2022/07/02 03:07:50;;;;;;;4.10;2.37;;;;;;;24.85;62.38;99006.84;6069493;23;20173;-91
2022/07/02 03:10:16;;;;;;;3.73;2.00;;;;;;;24.86;61.41;99015.72;6069645;23;20232;-90
2022/07/02 03:12:41;;;;;;;4.83;2.17;;;;;;;24.83;61.63;99010.72;6069867;23;20252;-91
2022/07/02 03:15:07;;;;;;;5.40;2.70;;;;;;;24.81;61.86;99015.41;6069610;23;20485;-91
2022/07/02 03:17:33;;;;;;;5.63;2.60;;;;;;;24.88;61.43;99009.19;6069606;23;20149;-91
2022/07/02 03:19:59;;;;;;;3.60;2.13;;;;;;;24.77;61.74;99022.94;6069896;23;20153;-90
2022/07/02 03:22:24;;;;;;;4.20;2.20;;;;;;;24.82;61.75;99036.69;6068380;23;20489;-91
2022/07/02 03:24:50;;;;;;;5.87;2.87;;;;;;;24.82;61.46;99033.16;6044030;23;20189;-90
2022/07/02 03:27:15;;;;;;;3.37;2.17;;;;;;;24.76;62.00;99029.31;6044539;23;20172;-91
2022/07/02 03:29:41;;;;;;;4.30;2.67;;;;;;;24.79;62.14;99031.66;6044430;23;20168;-91
2022/07/02 03:32:06;;;;;;;6.33;2.60;;;;;;;24.75;62.35;99029.47;6068248;23;20191;-90
2022/07/02 03:34:32;;;;;;;5.83;3.40;;;;;;;24.80;62.26;99030.66;6069403;23;20149;-90
2022/07/02 03:36:57;;;;;;;5.00;3.00;;;;;;;24.86;62.12;99029.97;6069450;23;20149;-91
2022/07/02 03:39:23;;;;;;;5.17;3.30;;;;;;;24.91;62.06;99029.44;6069304;23;20597;-91
2022/07/02 03:41:48;;;;;;;4.27;2.43;;;;;;;24.90;62.21;99028.59;6069411;23;20224;-91
2022/07/02 03:44:14;;;;;;;6.23;2.63;;;;;;;24.89;62.34;99035.00;6044195;23;20168;-91
2022/07/02 03:46:39;;;;;;;4.10;2.63;;;;;;;24.94;62.76;99032.63;6069340;23;20149;-90
2022/07/02 03:49:05;;;;;;;4.53;2.60;;;;;;;25.00;62.46;99034.59;6069250;23;20164;-90
2022/07/02 03:51:30;;;;;;;9.43;3.17;;;;;;;25.01;63.02;99024.72;6069116;23;20208;-91
2022/07/02 03:53:55;;;;;;;4.40;2.20;;;;;;;25.08;62.77;99033.72;6069198;23;20569;-91
2022/07/02 03:56:21;;;;;;;8.70;2.77;;;;;;;25.11;62.94;99030.69;6069195;23;20596;-91
2022/07/02 03:58:46;;;;;;;4.00;2.37;;;;;;;25.17;62.98;99030.00;6069842;23;20251;-91
2022/07/02 04:01:12;;;;;;;4.83;2.73;;;;;;;25.26;62.95;99038.84;6069465;23;20223;-91
2022/07/02 04:03:38;;;;;;;5.40;2.73;;;;;;;25.24;63.37;99040.84;6069156;23;20153;-91
2022/07/02 04:06:03;;;;;;;5.83;2.77;;;;;;;25.34;63.00;99044.16;6069174;23;20212;-90
2022/07/02 04:08:29;;;;;;;5.60;2.57;;;;;;;25.40;62.78;99046.97;6069021;23;20228;-91
2022/07/02 04:10:54;;;;;;;6.43;2.67;;;;;;;25.48;62.33;99048.78;6044062;23;20208;-92
2022/07/02 04:13:20;;;;;;;4.97;3.13;;;;;;;25.51;62.21;99053.81;6069102;23;20228;-91
2022/07/02 04:15:45;;;;;;;5.13;2.80;;;;;;;25.58;62.07;99054.75;6069049;23;20149;-92
2022/07/02 04:18:11;;;;;;;5.97;2.80;;;;;;;25.66;62.62;99060.09;6068938;23;20169;-91
2022/07/02 04:20:37;;;;;;;8.83;3.03;;;;;;;25.77;62.33;99066.91;6043920;23;20232;-91
2022/07/02 04:23:02;;;;;;;6.07;2.97;;;;;;;25.80;61.83;99067.38;6068942;23;20216;-91
2022/07/02 04:25:28;;;;;;;7.37;3.37;;;;;;;25.79;61.26;99063.00;6068977;23;20150;-92
2022/07/02 04:27:54;;;;;;;7.27;2.37;;;;;;;25.71;61.66;99062.25;6069259;23;20153;-91
2022/07/02 04:30:19;;;;;;;5.77;2.90;;;;;;;25.68;61.47;99059.94;6069296;23;20216;-92
2022/07/02 04:32:45;;;;;;;4.80;2.37;;;;;;;25.78;61.20;99064.06;6067723;23;20196;-91
2022/07/02 04:35:10;;;;;;;5.67;2.57;;;;;;;25.87;60.98;99057.59;6043676;23;20232;-90
2022/07/02 04:37:36;;;;;;;7.77;2.80;;;;;;;25.91;60.60;99066.13;6068739;23;20157;-91
2022/07/02 04:40:01;;;;;;;4.70;2.70;;;;;;;25.89;60.84;99066.28;6069103;23;20581;-91
2022/07/02 04:42:27;;;;;;;4.80;2.43;;;;;;;25.88;60.76;99071.84;6068737;23;20163;-91
2022/07/02 04:44:52;;;;;;;6.20;2.30;;;;;;;25.96;60.30;99069.94;6043812;23;20245;-90
2022/07/02 04:47:18;;;;;;;6.93;2.30;;;;;;;26.01;60.32;99074.78;6043788;23;20157;-91
2022/07/02 04:49:43;;;;;;;3.57;1.87;;;;;;;26.08;58.81;99068.50;6068789;23;20228;-91
2022/07/02 04:52:09;;;;;;;5.23;2.53;;;;;;;26.13;58.07;99070.66;6068917;23;20181;-91
2022/07/02 04:54:34;;;;;;;2.53;1.77;;;;;;;26.17;58.55;99077.38;6068968;23;20162;-91
2022/07/02 04:57:00;;;;;;;7.27;3.27;;;;;;;26.08;57.54;99073.03;6068718;23;20493;-91
2022/07/02 04:59:25;;;;;;;4.40;2.17;;;;;;;26.15;58.42;99069.47;6068971;23;20153;-91
2022/07/02 05:01:51;;;;;;;5.20;2.30;;;;;;;26.30;57.75;99071.38;6067523;23;20197;-91
2022/07/02 05:04:18;;;;;;;3.03;1.50;;;;;;;26.38;57.19;99082.06;6043655;23;20485;-91
2022/07/02 05:06:43;;;;;;;4.43;2.13;;;;;;;26.41;57.46;99079.00;6043908;23;20164;-91
2022/07/02 05:09:09;;;;;;;5.57;2.10;;;;;;;26.53;57.18;99077.53;6068481;23;20169;-92
2022/07/02 05:11:34;;;;;;;5.20;1.70;;;;;;;26.68;56.67;99081.06;6069194;23;20181;-91
2022/07/02 05:13:59;;;;;;;5.93;2.20;;;;;;;26.79;55.94;99083.34;6043765;23;20596;-91
2022/07/02 05:16:25;;;;;;;5.33;2.50;;;;;;;26.93;55.09;99079.81;6068594;23;20227;-93
2022/07/02 05:18:50;;;;;;;6.70;2.17;;;;;;;27.13;54.57;99080.06;6067405;23;20156;-91
2022/07/02 05:21:16;;;;;;;8.67;2.40;;;;;;;27.25;55.33;99081.28;6043573;23;20167;-91
2022/07/02 05:23:41;;;;;;;4.05;1.67;;;;;;;27.43;55.40;99084.44;6043462;23;20251;-91
2022/07/02 05:26:07;;;;;;;8.70;3.28;;;;;;;27.61;53.73;99095.63;6068503;23;20206;-91
2022/07/02 05:28:33;;;;;;;4.90;2.13;;;;;;;27.82;52.67;99086.75;6043493;23;20153;-91
2022/07/02 05:30:58;;;;;;;7.93;2.33;;;;;;;28.03;52.38;99094.88;6043409;23;20191;-92
2022/07/02 05:33:23;;;;;;;9.93;1.85;;;;;;;28.27;51.71;99093.63;6068466;23;20167;-93
2022/07/02 05:35:49;;;;;;;4.55;2.17;;;;;;;28.47;50.41;99100.00;6043462;23;20644;-91
2022/07/02 05:38:14;;;;;;;12.77;2.75;;;;;;;28.69;50.48;99098.97;6068492;23;20212;-91
2022/07/02 05:40:40;;;;;;;3.17;1.67;;;;;;;28.85;49.73;99108.63;6068822;23;20450;-92
2022/07/02 05:43:05;;;;;;;5.05;2.40;;;;;;;28.91;49.75;99099.72;6068558;23;20153;-91
2022/07/02 05:45:31;;;;;;;2.95;1.90;;;;;;;28.98;50.09;99098.72;6068930;23;20152;-92
2022/07/02 05:47:57;;;;;;;7.32;2.28;;;;;;;28.96;51.01;99097.25;6068447;23;20164;-92
2022/07/02 05:50:22;;;;;;;3.70;1.80;;;;;;;29.10;50.82;99097.16;6068315;23;20256;-92
2022/07/02 05:52:48;;;;;;;3.38;2.33;;;;;;;29.07;50.39;99102.94;6068682;23;20743;-92
2022/07/02 05:55:14;;;;;;;5.35;2.45;;;;;;;29.12;51.40;99096.94;6069073;23;20157;-92
2022/07/02 05:57:39;;;;;;;5.00;2.50;;;;;;;29.03;50.79;99095.47;6068501;23;20169;-92
2022/07/02 06:00:07;;;;;;;5.40;2.13;;;;;;;29.19;51.06;99097.84;6067274;23;20199;-92
2022/07/02 06:02:32;;;;;;;4.35;2.20;;;;;;;29.21;49.87;99095.78;6068341;23;20566;-91
2022/07/02 06:04:58;;;;;;;8.88;2.42;;;;;;;29.33;48.24;99104.97;6068253;23;20160;-92
2022/07/02 06:07:42;;;;;;;6.28;1.88;;;;;;;29.45;48.56;99094.44;6043219;23;20256;-90
2022/07/02 06:10:09;;;;;;;3.83;1.98;;;;;;;29.65;48.18;99101.56;6067158;23;20165;-93
2022/07/02 06:12:34;;;;;;;3.85;2.08;;;;;;;29.51;48.45;99101.72;6067132;23;20184;-92
2022/07/02 06:15:00;;;;;;;3.72;2.05;;;;;;;29.29;48.53;99114.53;6068994;23;20156;-93
2022/07/02 06:17:26;;;;;;;6.35;2.42;;;;;;;29.39;48.74;99114.97;6068273;23;20488;-92
2022/07/02 06:19:51;;;;;;;9.45;2.80;;;;;;;29.58;48.83;99108.84;6068584;23;20173;-93
2022/07/02 06:22:17;;;;;;;5.90;2.03;;;;;;;29.89;48.21;99100.22;6068181;23;20664;-92
2022/07/02 06:24:45;;;;;;;4.90;2.38;;;;;;;30.22;48.19;99103.78;6043348;23;20164;-91
2022/07/02 06:27:10;;;;;;;3.92;2.08;;;;;;;30.50;46.08;99103.63;6067183;23;20285;-92
2022/07/02 06:29:36;;;;;;;4.30;2.10;;;;;;;30.71;46.27;99100.72;6068531;23;20634;-91
2022/07/02 06:32:01;;;;;;;4.05;2.15;;;;;;;30.94;45.87;99111.09;6068278;23;20192;-91
2022/07/02 06:34:27;;;;;;;3.42;2.17;;;;;;;31.21;44.60;99111.88;6068850;23;20161;-91
2022/07/02 06:36:52;;;;;;;4.47;2.42;;;;;;;31.43;43.57;99116.78;6068044;23;20153;-91
2022/07/02 06:39:18;;;;;;;4.25;2.28;;;;;;;31.65;43.49;99108.38;6068016;23;20595;-91
2022/07/02 06:44:27;;;;;;;4.18;2.50;;;;;;;32.02;41.77;99113.81;6068743;23;20168;-91
2022/07/02 06:46:52;;;;;;;3.45;1.58;;;;;;;32.22;40.74;99111.81;6068338;23;20558;-92
2022/07/02 06:49:18;;;;;;;3.00;2.10;;;;;;;32.42;39.82;99110.81;6067713;23;20613;-89
2022/07/02 06:51:44;;;;;;;4.20;2.35;;;;;;;32.53;39.76;99118.28;6042973;23;20181;-91
2022/07/02 06:54:09;;;;;;;2.92;1.83;;;;;;;32.49;40.19;99111.63;6068040;23;20257;-92
2022/07/02 06:56:37;;;;;;;6.35;2.30;;;;;;;32.79;39.05;99115.31;6043631;23;20157;-93
2022/07/02 06:59:04;;;;;;;3.65;2.22;;;;;;;32.90;39.31;99117.31;6068807;23;20228;-91
2022/07/02 07:01:30;;;;;;;3.30;2.03;;;;;;;33.06;40.15;99111.34;6069867;23;20177;-91
2022/07/02 07:03:55;;;;;;;5.10;2.13;;;;;;;33.19;39.35;99111.19;6069684;23;20149;-91
2022/07/02 07:06:25;;;;;;;3.35;2.00;;;;;;;33.31;38.60;99120.22;6070023;23;20180;-90
2022/07/02 07:08:53;;;;;;;5.20;2.50;;;;;;;33.28;38.82;99109.81;6069697;23;20209;-91
2022/07/02 07:11:22;;;;;;;5.10;2.50;;;;;;;33.50;38.21;99121.06;6068325;23;20196;-92
2022/07/02 07:13:48;;;;;;;5.70;1.98;;;;;;;33.69;38.56;99109.13;6068544;23;20499;-92
2022/07/02 07:16:14;;;;;;;4.07;1.98;;;;;;;33.79;38.19;99114.84;6069649;23;20153;-91
2022/07/02 07:18:39;;;;;;;4.50;1.77;;;;;;;33.95;36.56;99110.66;6044612;23;20220;-93
2022/07/02 07:21:05;;;;;;;4.18;2.30;;;;;;;34.06;37.28;99109.91;6044471;23;20165;-93
2022/07/02 07:23:31;;;;;;;6.03;2.95;;;;;;;34.02;37.23;99108.66;6068451;23;20167;-91
2022/07/02 07:25:57;;;;;;;3.45;2.50;;;;;;;34.04;37.08;99109.28;6069756;23;20481;-92
2022/07/02 07:28:26;;;;;;;3.28;1.88;;;;;;;34.18;37.58;99116.19;6069520;23;20150;-90
2022/07/02 07:30:55;;;;;;;5.40;2.60;;;;;;;34.28;36.02;99108.28;6069133;23;20465;-90
2022/07/02 07:33:21;;;;;;;5.85;2.50;;;;;;;34.26;36.34;99112.31;6069432;23;20149;-91
2022/07/02 07:35:46;;;;;;;5.25;1.70;;;;;;;34.43;37.25;99108.69;6044457;23;20162;-92
2022/07/02 07:38:12;;;;;;;4.80;2.00;;;;;;;34.76;35.93;99116.31;6069408;23;20159;-92
2022/07/02 07:40:37;;;;;;;3.25;1.67;;;;;;;34.77;36.32;99117.13;6069317;23;20153;-91
2022/07/02 07:43:03;;;;;;;4.20;1.75;;;;;;;34.84;35.87;99113.22;6069416;23;20149;-92
2022/07/02 07:45:30;;;;;;;5.80;2.30;;;;;;;34.97;35.81;99098.53;6069644;23;20566;-92
2022/07/02 07:47:55;;;;;;;2.80;1.88;;;;;;;35.14;36.33;99104.97;6068238;23;20606;-91
2022/07/02 07:50:21;;;;;;;4.22;2.47;;;;;;;35.23;35.13;99106.22;6069142;23;20159;-92
2022/07/02 07:52:46;;;;;;;3.40;2.03;;;;;;;35.35;35.25;99107.03;6068100;23;20669;-91
2022/07/02 07:55:12;;;;;;;3.00;1.90;;;;;;;35.33;34.30;99113.78;6068421;23;20172;-90
2022/07/02 07:57:37;;;;;;;3.25;2.20;;;;;;;35.39;34.46;99110.94;6069230;23;20216;-92
2022/07/02 08:00:04;;;;;;;5.30;1.88;;;;;;;35.52;34.27;99110.66;6068095;23;20152;-92
2022/07/02 08:02:30;;;;;;;4.97;1.95;;;;;;;35.67;33.44;99118.34;6044225;23;20594;-92
2022/07/02 08:04:55;;;;;;;3.50;1.40;;;;;;;35.90;33.27;99117.44;6069182;23;20158;-92
2022/07/02 08:07:21;;;;;;;5.13;1.92;;;;;;;35.74;33.81;99114.44;6068944;23;20304;-91
2022/07/02 08:09:52;;;;;;;3.65;1.70;;;;;;;35.84;32.40;99111.06;6069385;23;20189;-93
2022/07/02 08:12:21;;;;;;;6.05;2.35;;;;;;;36.03;32.21;99114.44;6044185;23;20192;-92
2022/07/02 08:14:47;;;;;;;3.15;1.83;;;;;;;35.89;30.97;99115.78;6044077;23;20569;-93
2022/07/02 08:17:13;;;;;;;3.42;1.98;;;;;;;36.03;32.51;99119.91;6069267;23;20178;-93
2022/07/02 08:19:38;;;;;;;3.15;1.63;;;;;;;36.24;32.64;99113.72;6067983;23;20152;-92
2022/07/02 08:22:04;;;;;;;4.38;2.08;;;;;;;36.47;32.76;99115.47;6043834;23;20153;-92
2022/07/02 08:24:29;;;;;;;4.30;2.15;;;;;;;36.47;31.20;99124.50;6043965;23;20159;-92
2022/07/02 08:26:55;;;;;;;2.90;2.13;;;;;;;36.52;33.34;99119.16;6068898;23;20169;-90
2022/07/02 08:29:20;;;;;;;4.40;2.05;;;;;;;36.71;33.70;99125.19;6067765;23;20212;-94
2022/07/02 08:31:46;;;;;;;3.20;1.90;;;;;;;36.69;34.20;99122.69;6068925;23;20181;-93
2022/07/02 08:34:11;;;;;;;3.63;2.00;;;;;;;36.79;32.00;99128.31;6067843;23;20582;-92
2022/07/02 08:36:37;;;;;;;4.93;1.90;;;;;;;36.71;32.43;99126.03;6044144;23;20232;-92
2022/07/02 08:39:02;;;;;;;8.23;2.72;;;;;;;36.49;32.34;99125.09;6069277;23;20150;-93
2022/07/02 08:41:29;;;;;;;3.78;2.20;;;;;;;36.64;32.31;99128.06;6068875;23;20231;-92
2022/07/02 08:43:57;;;;;;;5.32;2.60;;;;;;;36.76;33.37;99131.56;6068928;23;20153;-91
2022/07/02 08:46:24;;;;;;;4.50;2.22;;;;;;;36.85;33.09;99130.03;6068759;23;20157;-92
2022/07/02 08:48:51;;;;;;;4.28;2.47;;;;;;;37.01;32.52;99135.75;6043771;23;20331;-93
2022/07/02 08:51:20;;;;;;;3.17;2.10;;;;;;;36.88;34.39;99126.81;6068748;23;20193;-92
2022/07/02 08:53:47;;;;;;;3.58;1.98;;;;;;;37.18;33.55;99128.38;6068032;23;20171;-92
2022/07/02 08:56:17;;;;;;;5.53;1.73;;;;;;;37.29;33.59;99133.72;6068764;23;20236;-91
2022/07/02 08:58:44;;;;;;;3.30;2.15;;;;;;;37.30;33.41;99135.38;6067483;23;20597;-93
2022/07/02 09:01:11;;;;;;;5.30;2.03;;;;;;;37.52;32.84;99132.69;6043523;23;20153;-91
2022/07/02 09:03:38;;;;;;;4.22;2.17;;;;;;;37.53;32.03;99132.41;6069037;23;20154;-93
2022/07/02 09:06:06;;;;;;;2.83;1.83;;;;;;;37.52;32.37;99138.16;6069161;23;20153;-89
2022/07/02 09:08:31;;;;;;;3.80;1.90;;;;;;;37.75;30.88;99137.06;6068464;23;20193;-90
2022/07/02 09:10:58;;;;;;;4.50;1.77;;;;;;;37.92;31.62;99132.38;6068373;23;20496;-90
2022/07/02 09:13:24;;;;;;;3.90;2.20;;;;;;;37.76;30.16;99136.81;6068520;23;20149;-91
2022/07/02 09:15:52;;;;;;;3.50;2.10;;;;;;;37.87;31.19;99133.13;6069109;23;20601;-93
2022/07/02 09:18:18;;;;;;;3.38;2.13;;;;;;;37.75;31.55;99126.94;6068732;23;20600;-94
2022/07/02 09:20:44;;;;;;;4.05;2.30;;;;;;;37.80;30.97;99137.09;6068514;23;20153;-93
2022/07/02 09:23:20;;;;;;;4.93;1.83;;;;;;;37.87;31.00;99137.78;6068397;23;20205;-89
2022/07/02 09:25:46;;;;;;;7.47;2.10;;;;;;;37.95;31.50;99129.91;6067357;23;20485;-91
2022/07/02 09:28:14;;;;;;;3.80;1.85;;;;;;;37.90;31.23;99135.34;6068417;23;20455;-93
2022/07/02 09:30:40;;;;;;;2.97;1.77;;;;;;;37.65;31.12;99129.56;6067345;23;20261;-91
2022/07/02 09:33:31;;;;;;;5.78;2.03;;;;;;;37.91;31.42;99120.59;6068924;23;20256;-91
2022/07/02 09:35:58;;;;;;;3.75;1.88;;;;;;;37.80;29.66;99128.91;6069208;23;20144;-92
2022/07/02 09:38:23;;;;;;;3.58;2.00;;;;;;;37.86;30.82;99120.53;6068437;23;20157;-93
2022/07/02 09:41:01;;;;;;;4.68;1.77;;;;;;;38.22;29.39;99112.66;6067264;23;20532;-91
2022/07/02 09:43:32;;;;;;;2.78;1.30;;;;;;;38.37;28.47;99118.31;6068325;23;20156;-90
2022/07/02 09:46:01;;;;;;;3.70;1.70;;;;;;;38.22;29.41;99115.41;6068417;23;20160;-90
2022/07/02 09:48:27;;;;;;;5.15;2.10;;;;;;;38.59;28.11;99121.78;6068628;23;20701;-92
2022/07/02 09:50:53;;;;;;;3.20;1.88;;;;;;;38.65;28.78;99118.00;6068300;23;20154;-91
2022/07/02 09:53:19;;;;;;;2.78;1.70;;;;;;;38.59;28.47;99105.34;6068256;23;20149;-92
2022/07/02 09:55:49;;;;;;;6.47;1.80;;;;;;;38.69;28.78;99117.22;6043310;23;20164;-92
2022/07/02 09:58:23;;;;;;;4.00;2.35;;;;;;;38.37;27.31;99118.31;6068313;23;20163;-92
2022/07/02 10:00:48;;;;;;;3.50;1.92;;;;;;;38.25;28.80;99125.84;6068653;23;20473;-91
2022/07/02 10:03:14;;;;;;;5.32;1.98;;;;;;;38.53;29.22;99109.13;6068552;23;20157;-92
2022/07/02 10:05:41;;;;;;;3.50;2.00;;;;;;;38.60;28.14;99113.28;6068384;23;20236;-92
2022/07/02 10:08:07;;;;;;;3.08;1.70;;;;;;;38.55;28.01;99112.44;6067046;23;20172;-90
2022/07/02 10:10:35;;;;;;;2.92;1.60;;;;;;;38.67;27.47;99119.41;6068257;23;20153;-92
2022/07/02 10:13:01;;;;;;;7.78;1.80;;;;;;;38.79;27.58;99116.47;6068088;23;20613;-91
2022/07/02 10:15:31;;;;;;;2.97;1.60;;;;;;;38.99;26.52;99116.63;6068220;23;20149;-91
2022/07/02 10:17:57;;;;;;;2.75;1.90;;;;;;;38.75;27.08;99123.59;6043190;23;20590;-92
2022/07/02 10:20:23;;;;;;;4.45;1.90;;;;;;;38.93;26.32;99114.94;6068134;23;20570;-90
2022/07/02 10:22:52;;;;;;;2.95;1.58;;;;;;;38.93;26.92;99114.94;6068022;23;20152;-91
2022/07/02 10:25:18;;;;;;;2.35;1.42;;;;;;;38.76;28.38;99114.25;6067046;23;20172;-93
2022/07/02 10:27:46;;;;;;;3.33;1.48;;;;;;;38.85;26.81;99115.44;6066959;23;20164;-91
2022/07/02 10:30:12;;;;;;;2.67;1.73;;;;;;;38.85;27.98;99109.13;6068150;23;20156;-91
2022/07/02 10:32:52;;;;;;;3.95;1.67;;;;;;;38.57;26.64;99099.31;6068345;23;20192;-92
2022/07/02 10:35:18;;;;;;;4.32;1.58;;;;;;;38.13;27.46;99095.91;6045212;23;20604;-92
2022/07/02 10:37:44;;;;;;;2.60;1.67;;;;;;;38.56;27.04;99094.91;6068864;23;20176;-92
2022/07/02 10:40:21;;;;;;;4.82;2.10;;;;;;;38.64;26.62;99092.50;6069982;23;20593;-92
2022/07/02 10:42:49;;;;;;;2.53;1.40;;;;;;;38.54;28.49;99092.44;6070323;23;20129;-92
2022/07/02 10:45:20;;;;;;;5.60;1.50;;;;;;;38.73;25.75;99098.34;6069872;23;20161;-90
2022/07/02 10:47:58;;;;;;;5.07;1.20;;;;;;;38.75;25.76;99092.59;6070279;23;20160;-94
2022/07/02 10:50:38;;;;;;;3.72;1.95;;;;;;;38.08;25.44;99087.63;6070393;23;20212;-93
2022/07/02 10:53:17;;;;;;;3.45;1.73;;;;;;;38.38;25.88;99078.88;6070136;23;20200;-94
2022/07/02 10:56:04;;;;;;;2.47;1.33;;;;;;;37.96;25.94;99079.59;6069950;23;20149;-91
2022/07/02 10:58:32;;;;;;;2.42;1.33;;;;;;;38.14;25.88;99087.41;6069360;23;20672;-91
2022/07/02 11:01:15;;;;;;;3.53;1.33;;;;;;;37.99;26.67;99080.97;6044804;23;20168;-93
2022/07/02 11:04:01;;;;;;;4.78;2.15;;;;;;;38.49;27.04;99080.63;6070124;23;20624;-91
2022/07/02 11:06:27;;;;;;;3.00;1.20;;;;;;;38.66;24.07;99084.00;6070394;23;20212;-94
2022/07/02 11:09:03;;;;;;;2.75;1.33;;;;;;;38.67;24.07;99085.69;6069567;23;20168;-94
2022/07/02 11:11:40;;;;;;;1.77;1.15;;;;;;;38.94;23.46;99082.88;6069857;23;20193;-92
2022/07/02 11:14:10;;;;;;;3.08;1.10;;;;;;;38.72;23.51;99078.31;6069618;23;20179;-92
2022/07/02 11:16:38;;;;;;;1.55;1.23;;;;;;;38.79;24.41;99075.38;6069945;23;20164;-92
2022/07/02 11:19:05;;;;;;;4.72;1.80;;;;;;;38.98;25.80;99082.06;6069704;23;20164;-92
2022/07/02 11:21:31;;;;;;;3.38;1.35;;;;;;;39.20;23.52;99080.03;6069556;23;20637;-92
2022/07/02 11:23:58;;;;;;;2.33;1.30;;;;;;;38.96;24.37;99080.69;6069663;23;20156;-92
2022/07/02 11:26:27;;;;;;;2.38;1.42;;;;;;;39.37;25.36;99076.22;6069479;23;20177;-92
2022/07/02 11:28:54;;;;;;;9.35;2.40;;;;;;;38.90;25.50;99079.81;6044648;23;20593;-91
2022/07/02 11:31:22;;;;;;;5.60;1.60;;;;;;;38.48;25.16;99076.22;6068346;23;20184;-91
2022/07/02 11:33:56;;;;;;;6.03;1.95;;;;;;;38.57;25.36;99082.88;6069480;23;20601;-92
2022/07/02 11:36:23;;;;;;;3.85;1.90;;;;;;;38.91;25.03;99081.50;6070167;23;20463;-91
2022/07/02 11:38:50;;;;;;;3.03;1.70;;;;;;;39.03;25.76;99067.56;6069268;23;20153;-92